sensor_id;sensor_type;location;lat;lon;timestamp;P1;durP1;ratioP1;P2;durP2;ratioP2
69203;SDS011;56317;27.658;85.326;2023-05-29T00:01:29;91.43;;;50.67;;
69203;SDS011;56317;27.658;85.326;2023-05-29T00:03:57;99.85;;;52.72;;
69203;SDS011;56317;27.658;85.326;2023-05-29T00:06:24;94.97;;;50.88;;
69203;SDS011;56317;27.658;85.326;2023-05-29T00:08:51;84.47;;;49.42;;
69203;SDS011;56317;27.658;85.326;2023-05-29T00:11:18;89.20;;;48.92;;
69203;SDS011;56317;27.658;85.326;2023-05-29T00:13:45;85.75;;;49.88;;
69203;SDS011;56317;27.658;85.326;2023-05-29T00:16:12;93.55;;;49.65;;
69203;SDS011;56317;27.658;85.326;2023-05-29T00:18:39;87.30;;;48.83;;
69203;SDS011;56317;27.658;85.326;2023-05-29T00:21:11;90.20;;;49.25;;
69203;SDS011;56317;27.658;85.326;2023-05-29T00:23:39;92.25;;;46.30;;
69203;SDS011;56317;27.658;85.326;2023-05-29T00:26:07;88.40;;;47.63;;
69203;SDS011;56317;27.658;85.326;2023-05-29T00:28:37;93.97;;;48.40;;
69203;SDS011;56317;27.658;85.326;2023-05-29T00:31:07;75.13;;;45.70;;
69203;SDS011;56317;27.658;85.326;2023-05-29T00:33:35;77.45;;;44.10;;
69203;SDS011;56317;27.658;85.326;2023-05-29T00:36:03;78.90;;;45.63;;
69203;SDS011;56317;27.658;85.326;2023-05-29T00:38:31;93.82;;;47.30;;
69203;SDS011;56317;27.658;85.326;2023-05-29T00:40:58;92.40;;;46.95;;
69203;SDS011;56317;27.658;85.326;2023-05-29T00:43:28;77.85;;;44.28;;
69203;SDS011;56317;27.658;85.326;2023-05-29T00:45:55;65.22;;;37.38;;
69203;SDS011;56317;27.658;85.326;2023-05-29T00:48:23;82.15;;;46.13;;
69203;SDS011;56317;27.658;85.326;2023-05-29T00:50:50;78.57;;;43.05;;
69203;SDS011;56317;27.658;85.326;2023-05-29T00:53:18;85.43;;;46.35;;
69203;SDS011;56317;27.658;85.326;2023-05-29T00:55:46;88.35;;;50.03;;
69203;SDS011;56317;27.658;85.326;2023-05-29T00:58:20;92.80;;;50.22;;
69203;SDS011;56317;27.658;85.326;2023-05-29T01:01:05;89.10;;;50.55;;
69203;SDS011;56317;27.658;85.326;2023-05-29T01:03:36;82.35;;;46.25;;
69203;SDS011;56317;27.658;85.326;2023-05-29T01:06:04;86.38;;;46.90;;
69203;SDS011;56317;27.658;85.326;2023-05-29T01:08:33;71.60;;;44.17;;
69203;SDS011;56317;27.658;85.326;2023-05-29T01:11:03;86.25;;;43.67;;
69203;SDS011;56317;27.658;85.326;2023-05-29T01:13:39;77.22;;;40.80;;
69203;SDS011;56317;27.658;85.326;2023-05-29T01:16:26;64.70;;;39.65;;
69203;SDS011;56317;27.658;85.326;2023-05-29T01:22:12;58.90;;;36.08;;
69203;SDS011;56317;27.658;85.326;2023-05-29T01:25:18;55.63;;;33.80;;
69203;SDS011;56317;27.658;85.326;2023-05-29T01:28:04;60.97;;;34.95;;
69203;SDS011;56317;27.658;85.326;2023-05-29T01:30:33;54.22;;;32.28;;
69203;SDS011;56317;27.658;85.326;2023-05-29T01:33:04;60.13;;;31.48;;
69203;SDS011;56317;27.658;85.326;2023-05-29T01:35:31;60.33;;;33.03;;
69203;SDS011;56317;27.658;85.326;2023-05-29T01:38:01;49.72;;;29.55;;
69203;SDS011;56317;27.658;85.326;2023-05-29T01:40:28;56.30;;;32.08;;
69203;SDS011;56317;27.658;85.326;2023-05-29T01:43:03;55.20;;;32.40;;
69203;SDS011;56317;27.658;85.326;2023-05-29T01:45:32;64.35;;;34.72;;
69203;SDS011;56317;27.658;85.326;2023-05-29T01:47:59;57.42;;;35.08;;
69203;SDS011;56317;27.658;85.326;2023-05-29T01:50:26;64.72;;;37.00;;
69203;SDS011;56317;27.658;85.326;2023-05-29T01:52:57;62.33;;;37.90;;
69203;SDS011;56317;27.658;85.326;2023-05-29T01:55:26;63.43;;;35.43;;
69203;SDS011;56317;27.658;85.326;2023-05-29T01:57:53;72.13;;;40.03;;
69203;SDS011;56317;27.658;85.326;2023-05-29T02:00:21;81.55;;;43.70;;
69203;SDS011;56317;27.658;85.326;2023-05-29T02:02:59;62.85;;;38.53;;
69203;SDS011;56317;27.658;85.326;2023-05-29T02:05:30;55.22;;;35.53;;
69203;SDS011;56317;27.658;85.326;2023-05-29T02:07:57;42.17;;;26.00;;
69203;SDS011;56317;27.658;85.326;2023-05-29T02:10:24;58.42;;;33.22;;
69203;SDS011;56317;27.658;85.326;2023-05-29T02:12:51;53.33;;;32.20;;
69203;SDS011;56317;27.658;85.326;2023-05-29T02:15:23;58.83;;;33.90;;
69203;SDS011;56317;27.658;85.326;2023-05-29T02:17:50;68.35;;;39.65;;
69203;SDS011;56317;27.658;85.326;2023-05-29T02:20:18;56.83;;;35.70;;
69203;SDS011;56317;27.658;85.326;2023-05-29T02:22:45;60.75;;;33.45;;
69203;SDS011;56317;27.658;85.326;2023-05-29T02:25:18;57.35;;;35.42;;
69203;SDS011;56317;27.658;85.326;2023-05-29T02:27:45;53.53;;;36.22;;
69203;SDS011;56317;27.658;85.326;2023-05-29T02:30:13;48.45;;;31.40;;
69203;SDS011;56317;27.658;85.326;2023-05-29T02:32:40;54.10;;;31.13;;
69203;SDS011;56317;27.658;85.326;2023-05-29T02:35:07;50.28;;;30.63;;
69203;SDS011;56317;27.658;85.326;2023-05-29T02:37:35;42.58;;;27.67;;
69203;SDS011;56317;27.658;85.326;2023-05-29T02:40:03;46.50;;;29.55;;
69203;SDS011;56317;27.658;85.326;2023-05-29T02:42:34;56.17;;;30.38;;
69203;SDS011;56317;27.658;85.326;2023-05-29T02:45:02;49.72;;;30.73;;
69203;SDS011;56317;27.658;85.326;2023-05-29T02:47:32;49.35;;;29.55;;
69203;SDS011;56317;27.658;85.326;2023-05-29T02:49:59;52.03;;;27.98;;
69203;SDS011;56317;27.658;85.326;2023-05-29T02:52:27;47.78;;;29.65;;
69203;SDS011;56317;27.658;85.326;2023-05-29T02:55:12;48.22;;;30.10;;
69203;SDS011;56317;27.658;85.326;2023-05-29T03:00:49;60.20;;;33.97;;
69203;SDS011;56317;27.658;85.326;2023-05-29T03:03:18;55.47;;;33.92;;
69203;SDS011;56317;27.658;85.326;2023-05-29T03:05:45;53.70;;;31.90;;
69203;SDS011;56317;27.658;85.326;2023-05-29T03:08:12;54.95;;;32.28;;
69203;SDS011;56317;27.658;85.326;2023-05-29T03:10:40;56.85;;;34.95;;
69203;SDS011;56317;27.658;85.326;2023-05-29T03:13:13;58.13;;;33.00;;
69203;SDS011;56317;27.658;85.326;2023-05-29T03:15:43;54.47;;;33.35;;
69203;SDS011;56317;27.658;85.326;2023-05-29T03:18:11;60.92;;;33.63;;
69203;SDS011;56317;27.658;85.326;2023-05-29T03:20:41;54.92;;;33.50;;
69203;SDS011;56317;27.658;85.326;2023-05-29T03:23:09;58.20;;;32.80;;
69203;SDS011;56317;27.658;85.326;2023-05-29T03:25:37;50.63;;;32.30;;
69203;SDS011;56317;27.658;85.326;2023-05-29T03:28:04;56.80;;;33.67;;
69203;SDS011;56317;27.658;85.326;2023-05-29T03:30:31;56.03;;;28.15;;
69203;SDS011;56317;27.658;85.326;2023-05-29T03:32:58;50.42;;;31.10;;
69203;SDS011;56317;27.658;85.326;2023-05-29T03:35:31;51.70;;;32.10;;
69203;SDS011;56317;27.658;85.326;2023-05-29T03:37:59;46.20;;;29.27;;
69203;SDS011;56317;27.658;85.326;2023-05-29T03:40:26;51.50;;;29.73;;
69203;SDS011;56317;27.658;85.326;2023-05-29T03:42:53;51.22;;;31.00;;
69203;SDS011;56317;27.658;85.326;2023-05-29T03:45:20;51.28;;;32.40;;
69203;SDS011;56317;27.658;85.326;2023-05-29T03:47:51;61.10;;;33.10;;
69203;SDS011;56317;27.658;85.326;2023-05-29T03:50:18;51.83;;;32.85;;
69203;SDS011;56317;27.658;85.326;2023-05-29T03:52:45;49.17;;;31.58;;
69203;SDS011;56317;27.658;85.326;2023-05-29T03:55:15;47.78;;;31.42;;
69203;SDS011;56317;27.658;85.326;2023-05-29T03:57:44;52.15;;;31.08;;
69203;SDS011;56317;27.658;85.326;2023-05-29T04:00:11;49.17;;;28.95;;
69203;SDS011;56317;27.658;85.326;2023-05-29T04:02:39;43.33;;;28.65;;
69203;SDS011;56317;27.658;85.326;2023-05-29T04:05:07;40.38;;;27.23;;
69203;SDS011;56317;27.658;85.326;2023-05-29T04:07:35;44.63;;;26.02;;
69203;SDS011;56317;27.658;85.326;2023-05-29T04:10:02;38.00;;;22.73;;
69203;SDS011;56317;27.658;85.326;2023-05-29T04:12:31;41.05;;;21.92;;
69203;SDS011;56317;27.658;85.326;2023-05-29T04:14:59;39.25;;;23.55;;
69203;SDS011;56317;27.658;85.326;2023-05-29T04:17:26;31.65;;;19.95;;
69203;SDS011;56317;27.658;85.326;2023-05-29T04:19:53;32.85;;;21.35;;
69203;SDS011;56317;27.658;85.326;2023-05-29T04:24:54;35.05;;;19.67;;
69203;SDS011;56317;27.658;85.326;2023-05-29T04:27:21;29.02;;;18.15;;
69203;SDS011;56317;27.658;85.326;2023-05-29T04:29:48;33.63;;;19.27;;
69203;SDS011;56317;27.658;85.326;2023-05-29T04:32:15;33.85;;;18.27;;
69203;SDS011;56317;27.658;85.326;2023-05-29T04:34:43;32.28;;;17.17;;
69203;SDS011;56317;27.658;85.326;2023-05-29T04:37:10;34.55;;;18.33;;
69203;SDS011;56317;27.658;85.326;2023-05-29T04:39:39;25.33;;;17.02;;
69203;SDS011;56317;27.658;85.326;2023-05-29T04:42:06;35.85;;;17.52;;
69203;SDS011;56317;27.658;85.326;2023-05-29T04:44:33;32.05;;;17.17;;
69203;SDS011;56317;27.658;85.326;2023-05-29T04:47:01;30.98;;;17.02;;
69203;SDS011;56317;27.658;85.326;2023-05-29T04:51:59;34.92;;;15.82;;
69203;SDS011;56317;27.658;85.326;2023-05-29T04:54:28;27.67;;;14.30;;
69203;SDS011;56317;27.658;85.326;2023-05-29T04:56:55;22.75;;;13.15;;
69203;SDS011;56317;27.658;85.326;2023-05-29T04:59:22;47.47;;;15.70;;
69203;SDS011;56317;27.658;85.326;2023-05-29T05:01:49;23.40;;;11.73;;
69203;SDS011;56317;27.658;85.326;2023-05-29T05:04:16;22.77;;;12.27;;
69203;SDS011;56317;27.658;85.326;2023-05-29T05:06:44;20.65;;;11.10;;
69203;SDS011;56317;27.658;85.326;2023-05-29T05:09:11;26.77;;;13.32;;
69203;SDS011;56317;27.658;85.326;2023-05-29T05:11:38;40.45;;;14.80;;
69203;SDS011;56317;27.658;85.326;2023-05-29T05:14:05;36.53;;;13.70;;
69203;SDS011;56317;27.658;85.326;2023-05-29T05:16:32;24.83;;;13.85;;
69203;SDS011;56317;27.658;85.326;2023-05-29T05:19:00;24.55;;;12.00;;
69203;SDS011;56317;27.658;85.326;2023-05-29T05:21:27;24.92;;;12.10;;
69203;SDS011;56317;27.658;85.326;2023-05-29T05:23:57;22.27;;;12.57;;
69203;SDS011;56317;27.658;85.326;2023-05-29T05:26:24;18.98;;;10.82;;
69203;SDS011;56317;27.658;85.326;2023-05-29T05:28:54;19.08;;;10.73;;
69203;SDS011;56317;27.658;85.326;2023-05-29T05:31:22;26.50;;;12.32;;
69203;SDS011;56317;27.658;85.326;2023-05-29T05:33:49;18.70;;;11.27;;
69203;SDS011;56317;27.658;85.326;2023-05-29T05:36:16;25.27;;;12.82;;
69203;SDS011;56317;27.658;85.326;2023-05-29T05:38:43;24.48;;;13.20;;
69203;SDS011;56317;27.658;85.326;2023-05-29T05:41:11;24.75;;;13.15;;
69203;SDS011;56317;27.658;85.326;2023-05-29T05:43:38;29.40;;;15.95;;
69203;SDS011;56317;27.658;85.326;2023-05-29T05:46:05;27.90;;;15.63;;
69203;SDS011;56317;27.658;85.326;2023-05-29T05:48:32;23.30;;;14.32;;
69203;SDS011;56317;27.658;85.326;2023-05-29T05:51:00;25.23;;;14.77;;
69203;SDS011;56317;27.658;85.326;2023-05-29T05:53:27;22.23;;;14.80;;
69203;SDS011;56317;27.658;85.326;2023-05-29T05:55:54;27.67;;;14.27;;
69203;SDS011;56317;27.658;85.326;2023-05-29T05:58:22;26.75;;;14.52;;
69203;SDS011;56317;27.658;85.326;2023-05-29T06:00:49;29.90;;;14.57;;
69203;SDS011;56317;27.658;85.326;2023-05-29T06:03:24;20.48;;;13.40;;
69203;SDS011;56317;27.658;85.326;2023-05-29T06:05:51;21.38;;;13.80;;
69203;SDS011;56317;27.658;85.326;2023-05-29T06:08:19;26.17;;;13.52;;
69203;SDS011;56317;27.658;85.326;2023-05-29T06:10:47;21.20;;;13.65;;
69203;SDS011;56317;27.658;85.326;2023-05-29T06:13:14;30.30;;;13.27;;
69203;SDS011;56317;27.658;85.326;2023-05-29T06:15:42;25.13;;;13.45;;
69203;SDS011;56317;27.658;85.326;2023-05-29T06:18:10;28.63;;;13.48;;
69203;SDS011;56317;27.658;85.326;2023-05-29T06:20:38;23.70;;;13.45;;
69203;SDS011;56317;27.658;85.326;2023-05-29T06:23:05;24.27;;;13.23;;
69203;SDS011;56317;27.658;85.326;2023-05-29T06:25:32;23.70;;;13.65;;
69203;SDS011;56317;27.658;85.326;2023-05-29T06:28:00;24.38;;;13.05;;
69203;SDS011;56317;27.658;85.326;2023-05-29T06:30:27;25.55;;;13.38;;
69203;SDS011;56317;27.658;85.326;2023-05-29T06:32:54;26.33;;;13.20;;
69203;SDS011;56317;27.658;85.326;2023-05-29T06:35:21;19.73;;;12.75;;
69203;SDS011;56317;27.658;85.326;2023-05-29T06:37:48;29.55;;;12.80;;
69203;SDS011;56317;27.658;85.326;2023-05-29T06:40:16;26.30;;;13.95;;
69203;SDS011;56317;27.658;85.326;2023-05-29T06:42:43;23.55;;;14.10;;
69203;SDS011;56317;27.658;85.326;2023-05-29T06:45:10;24.85;;;13.82;;
69203;SDS011;56317;27.658;85.326;2023-05-29T06:50:10;26.08;;;12.35;;
69203;SDS011;56317;27.658;85.326;2023-05-29T06:52:37;25.88;;;12.20;;
69203;SDS011;56317;27.658;85.326;2023-05-29T06:55:06;24.25;;;12.43;;
69203;SDS011;56317;27.658;85.326;2023-05-29T06:57:33;20.38;;;12.30;;
69203;SDS011;56317;27.658;85.326;2023-05-29T07:00:00;22.15;;;12.30;;
69203;SDS011;56317;27.658;85.326;2023-05-29T07:02:29;22.95;;;11.75;;
69203;SDS011;56317;27.658;85.326;2023-05-29T07:04:56;19.70;;;12.07;;
69203;SDS011;56317;27.658;85.326;2023-05-29T07:07:24;17.58;;;11.68;;
69203;SDS011;56317;27.658;85.326;2023-05-29T07:09:51;21.25;;;12.80;;
69203;SDS011;56317;27.658;85.326;2023-05-29T07:12:18;24.83;;;12.05;;
69203;SDS011;56317;27.658;85.326;2023-05-29T07:14:45;27.17;;;12.25;;
69203;SDS011;56317;27.658;85.326;2023-05-29T07:17:13;27.77;;;11.52;;
69203;SDS011;56317;27.658;85.326;2023-05-29T07:19:41;25.15;;;11.82;;
69203;SDS011;56317;27.658;85.326;2023-05-29T07:22:08;24.08;;;11.93;;
69203;SDS011;56317;27.658;85.326;2023-05-29T07:24:42;21.95;;;10.68;;
69203;SDS011;56317;27.658;85.326;2023-05-29T07:27:09;20.58;;;10.73;;
69203;SDS011;56317;27.658;85.326;2023-05-29T07:29:36;22.27;;;10.43;;
69203;SDS011;56317;27.658;85.326;2023-05-29T07:32:03;21.55;;;10.20;;
69203;SDS011;56317;27.658;85.326;2023-05-29T07:34:33;22.42;;;10.15;;
69203;SDS011;56317;27.658;85.326;2023-05-29T07:37:02;24.10;;;11.15;;
69203;SDS011;56317;27.658;85.326;2023-05-29T07:39:33;21.95;;;10.20;;
69203;SDS011;56317;27.658;85.326;2023-05-29T07:42:01;23.85;;;10.18;;
69203;SDS011;56317;27.658;85.326;2023-05-29T07:44:28;18.30;;;8.93;;
69203;SDS011;56317;27.658;85.326;2023-05-29T07:46:55;17.92;;;9.38;;
69203;SDS011;56317;27.658;85.326;2023-05-29T07:49:22;13.10;;;8.70;;
69203;SDS011;56317;27.658;85.326;2023-05-29T07:51:50;18.55;;;9.40;;
69203;SDS011;56317;27.658;85.326;2023-05-29T07:54:17;14.90;;;8.15;;
69203;SDS011;56317;27.658;85.326;2023-05-29T07:56:46;16.02;;;8.80;;
69203;SDS011;56317;27.658;85.326;2023-05-29T07:59:13;18.45;;;8.38;;
69203;SDS011;56317;27.658;85.326;2023-05-29T08:01:40;20.60;;;8.43;;
69203;SDS011;56317;27.658;85.326;2023-05-29T08:04:09;15.05;;;8.68;;
69203;SDS011;56317;27.658;85.326;2023-05-29T08:06:36;17.10;;;9.02;;
69203;SDS011;56317;27.658;85.326;2023-05-29T08:09:03;13.63;;;8.35;;
69203;SDS011;56317;27.658;85.326;2023-05-29T08:11:31;16.60;;;7.88;;
69203;SDS011;56317;27.658;85.326;2023-05-29T08:13:58;13.15;;;8.30;;
69203;SDS011;56317;27.658;85.326;2023-05-29T08:16:26;19.10;;;9.07;;
69203;SDS011;56317;27.658;85.326;2023-05-29T08:18:53;15.07;;;8.63;;
69203;SDS011;56317;27.658;85.326;2023-05-29T08:21:21;16.88;;;8.73;;
69203;SDS011;56317;27.658;85.326;2023-05-29T08:23:48;18.27;;;8.60;;
69203;SDS011;56317;27.658;85.326;2023-05-29T08:26:15;20.05;;;8.30;;
69203;SDS011;56317;27.658;85.326;2023-05-29T08:28:43;20.67;;;8.77;;
69203;SDS011;56317;27.658;85.326;2023-05-29T08:31:12;16.45;;;8.38;;
69203;SDS011;56317;27.658;85.326;2023-05-29T08:33:40;19.40;;;8.35;;
69203;SDS011;56317;27.658;85.326;2023-05-29T08:36:07;18.52;;;8.45;;
69203;SDS011;56317;27.658;85.326;2023-05-29T08:38:35;15.10;;;8.95;;
69203;SDS011;56317;27.658;85.326;2023-05-29T08:41:02;18.75;;;8.90;;
69203;SDS011;56317;27.658;85.326;2023-05-29T08:43:34;14.55;;;8.13;;
69203;SDS011;56317;27.658;85.326;2023-05-29T08:46:02;23.38;;;9.15;;
69203;SDS011;56317;27.658;85.326;2023-05-29T08:48:30;15.82;;;8.80;;
69203;SDS011;56317;27.658;85.326;2023-05-29T08:50:58;24.08;;;10.18;;
69203;SDS011;56317;27.658;85.326;2023-05-29T08:53:25;25.50;;;10.90;;
69203;SDS011;56317;27.658;85.326;2023-05-29T08:55:53;29.73;;;11.65;;
69203;SDS011;56317;27.658;85.326;2023-05-29T08:58:21;25.38;;;11.98;;
69203;SDS011;56317;27.658;85.326;2023-05-29T09:03:18;27.75;;;12.25;;
69203;SDS011;56317;27.658;85.326;2023-05-29T09:05:47;35.97;;;13.55;;
69203;SDS011;56317;27.658;85.326;2023-05-29T09:08:15;25.45;;;13.45;;
69203;SDS011;56317;27.658;85.326;2023-05-29T09:10:42;32.28;;;13.27;;
69203;SDS011;56317;27.658;85.326;2023-05-29T09:13:10;29.13;;;14.20;;
69203;SDS011;56317;27.658;85.326;2023-05-29T09:15:37;24.55;;;13.95;;
69203;SDS011;56317;27.658;85.326;2023-05-29T09:18:05;27.35;;;13.38;;
69203;SDS011;56317;27.658;85.326;2023-05-29T09:20:34;26.92;;;14.13;;
69203;SDS011;56317;27.658;85.326;2023-05-29T09:23:03;27.25;;;16.48;;
69203;SDS011;56317;27.658;85.326;2023-05-29T09:25:31;33.55;;;15.88;;
69203;SDS011;56317;27.658;85.326;2023-05-29T09:28:00;29.23;;;16.15;;
69203;SDS011;56317;27.658;85.326;2023-05-29T09:30:40;37.03;;;14.63;;
69203;SDS011;56317;27.658;85.326;2023-05-29T09:33:09;36.88;;;17.13;;
69203;SDS011;56317;27.658;85.326;2023-05-29T09:38:04;28.00;;;16.05;;
69203;SDS011;56317;27.658;85.326;2023-05-29T09:40:39;35.15;;;18.30;;
69203;SDS011;56317;27.658;85.326;2023-05-29T09:43:13;43.85;;;17.23;;
69203;SDS011;56317;27.658;85.326;2023-05-29T09:45:46;24.77;;;14.27;;
69203;SDS011;56317;27.658;85.326;2023-05-29T09:50:41;35.95;;;16.48;;
69203;SDS011;56317;27.658;85.326;2023-05-29T09:53:20;41.88;;;15.65;;
69203;SDS011;56317;27.658;85.326;2023-05-29T09:55:53;32.38;;;15.55;;
69203;SDS011;56317;27.658;85.326;2023-05-29T09:58:24;31.65;;;15.73;;
69203;SDS011;56317;27.658;85.326;2023-05-29T10:00:51;23.40;;;14.93;;
69203;SDS011;56317;27.658;85.326;2023-05-29T10:03:19;32.25;;;17.00;;
69203;SDS011;56317;27.658;85.326;2023-05-29T10:05:50;34.63;;;19.77;;
69203;SDS011;56317;27.658;85.326;2023-05-29T10:08:18;56.25;;;29.77;;
69203;SDS011;56317;27.658;85.326;2023-05-29T10:10:46;40.47;;;24.05;;
69203;SDS011;56317;27.658;85.326;2023-05-29T10:13:15;29.88;;;15.85;;
69203;SDS011;56317;27.658;85.326;2023-05-29T10:15:44;32.65;;;16.17;;
69203;SDS011;56317;27.658;85.326;2023-05-29T10:18:13;36.63;;;17.83;;
69203;SDS011;56317;27.658;85.326;2023-05-29T10:20:41;27.10;;;14.40;;
69203;SDS011;56317;27.658;85.326;2023-05-29T10:23:11;29.30;;;14.20;;
69203;SDS011;56317;27.658;85.326;2023-05-29T10:25:39;26.33;;;15.05;;
69203;SDS011;56317;27.658;85.326;2023-05-29T10:28:06;27.67;;;14.55;;
69203;SDS011;56317;27.658;85.326;2023-05-29T10:35:42;29.42;;;14.88;;
69203;SDS011;56317;27.658;85.326;2023-05-29T10:38:12;30.23;;;16.08;;
69203;SDS011;56317;27.658;85.326;2023-05-29T10:40:40;31.23;;;15.80;;
69203;SDS011;56317;27.658;85.326;2023-05-29T10:43:07;28.40;;;13.68;;
69203;SDS011;56317;27.658;85.326;2023-05-29T10:53:14;26.20;;;13.95;;
69203;SDS011;56317;27.658;85.326;2023-05-29T10:55:53;25.67;;;13.80;;
69203;SDS011;56317;27.658;85.326;2023-05-29T10:58:25;33.38;;;16.35;;
69203;SDS011;56317;27.658;85.326;2023-05-29T11:00:53;32.33;;;15.18;;
69203;SDS011;56317;27.658;85.326;2023-05-29T11:03:25;41.50;;;16.65;;
69203;SDS011;56317;27.658;85.326;2023-05-29T11:06:04;33.28;;;14.82;;
69203;SDS011;56317;27.658;85.326;2023-05-29T11:11:32;34.10;;;16.77;;
69203;SDS011;56317;27.658;85.326;2023-05-29T11:14:03;28.77;;;14.90;;
69203;SDS011;56317;27.658;85.326;2023-05-29T11:19:05;20.75;;;13.48;;
69203;SDS011;56317;27.658;85.326;2023-05-29T11:21:53;37.85;;;16.20;;
69203;SDS011;56317;27.658;85.326;2023-05-29T11:24:35;27.33;;;15.15;;
69203;SDS011;56317;27.658;85.326;2023-05-29T11:27:04;34.10;;;16.90;;
69203;SDS011;56317;27.658;85.326;2023-05-29T11:29:34;26.77;;;14.00;;
69203;SDS011;56317;27.658;85.326;2023-05-29T11:32:04;35.28;;;14.73;;
69203;SDS011;56317;27.658;85.326;2023-05-29T11:34:35;27.48;;;14.68;;
69203;SDS011;56317;27.658;85.326;2023-05-29T11:37:08;27.85;;;15.40;;
69203;SDS011;56317;27.658;85.326;2023-05-29T11:39:37;28.48;;;16.27;;
69203;SDS011;56317;27.658;85.326;2023-05-29T11:44:34;41.05;;;17.52;;
69203;SDS011;56317;27.658;85.326;2023-05-29T11:47:03;38.08;;;15.48;;
69203;SDS011;56317;27.658;85.326;2023-05-29T11:49:35;31.63;;;15.75;;
69203;SDS011;56317;27.658;85.326;2023-05-29T11:54:36;28.60;;;16.77;;
69203;SDS011;56317;27.658;85.326;2023-05-29T11:57:03;26.58;;;15.70;;
69203;SDS011;56317;27.658;85.326;2023-05-29T11:59:31;26.75;;;16.48;;
69203;SDS011;56317;27.658;85.326;2023-05-29T12:01:59;36.17;;;17.52;;
69203;SDS011;56317;27.658;85.326;2023-05-29T12:04:30;29.88;;;17.13;;
69203;SDS011;56317;27.658;85.326;2023-05-29T12:06:57;28.25;;;15.90;;
69203;SDS011;56317;27.658;85.326;2023-05-29T12:09:26;33.42;;;17.13;;
69203;SDS011;56317;27.658;85.326;2023-05-29T12:12:02;35.70;;;17.20;;
69203;SDS011;56317;27.658;85.326;2023-05-29T12:14:30;29.90;;;17.40;;
69203;SDS011;56317;27.658;85.326;2023-05-29T12:16:58;28.63;;;16.88;;
69203;SDS011;56317;27.658;85.326;2023-05-29T12:19:25;35.92;;;18.13;;
69203;SDS011;56317;27.658;85.326;2023-05-29T12:21:53;30.77;;;18.13;;
69203;SDS011;56317;27.658;85.326;2023-05-29T12:24:22;36.35;;;20.08;;
69203;SDS011;56317;27.658;85.326;2023-05-29T12:26:50;31.50;;;18.48;;
69203;SDS011;56317;27.658;85.326;2023-05-29T12:31:58;34.00;;;19.75;;
69203;SDS011;56317;27.658;85.326;2023-05-29T12:34:26;33.90;;;20.50;;
69203;SDS011;56317;27.658;85.326;2023-05-29T12:37:09;34.40;;;20.25;;
69203;SDS011;56317;27.658;85.326;2023-05-29T12:39:39;38.53;;;21.75;;
69203;SDS011;56317;27.658;85.326;2023-05-29T12:42:08;42.92;;;23.40;;
69203;SDS011;56317;27.658;85.326;2023-05-29T12:44:37;42.20;;;22.95;;
69203;SDS011;56317;27.658;85.326;2023-05-29T12:47:04;34.08;;;19.88;;
69203;SDS011;56317;27.658;85.326;2023-05-29T12:49:36;42.35;;;22.23;;
69203;SDS011;56317;27.658;85.326;2023-05-29T12:52:06;47.00;;;23.35;;
69203;SDS011;56317;27.658;85.326;2023-05-29T12:54:37;45.67;;;23.75;;
69203;SDS011;56317;27.658;85.326;2023-05-29T12:57:04;35.00;;;21.60;;
69203;SDS011;56317;27.658;85.326;2023-05-29T12:59:32;42.00;;;20.77;;
69203;SDS011;56317;27.658;85.326;2023-05-29T13:01:59;43.47;;;21.98;;
69203;SDS011;56317;27.658;85.326;2023-05-29T13:04:27;35.60;;;20.25;;
69203;SDS011;56317;27.658;85.326;2023-05-29T13:06:55;38.53;;;19.67;;
69203;SDS011;56317;27.658;85.326;2023-05-29T13:09:22;37.90;;;20.95;;
69203;SDS011;56317;27.658;85.326;2023-05-29T13:11:49;46.75;;;23.13;;
69203;SDS011;56317;27.658;85.326;2023-05-29T13:14:18;39.92;;;22.20;;
69203;SDS011;56317;27.658;85.326;2023-05-29T13:16:46;34.97;;;20.77;;
69203;SDS011;56317;27.658;85.326;2023-05-29T13:19:14;39.25;;;20.77;;
69203;SDS011;56317;27.658;85.326;2023-05-29T13:21:48;42.30;;;21.15;;
69203;SDS011;56317;27.658;85.326;2023-05-29T13:24:15;38.17;;;20.70;;
69203;SDS011;56317;27.658;85.326;2023-05-29T13:26:42;41.45;;;21.85;;
69203;SDS011;56317;27.658;85.326;2023-05-29T13:29:09;40.15;;;22.60;;
69203;SDS011;56317;27.658;85.326;2023-05-29T13:31:36;44.05;;;23.30;;
69203;SDS011;56317;27.658;85.326;2023-05-29T13:34:04;33.42;;;22.52;;
69203;SDS011;56317;27.658;85.326;2023-05-29T13:36:31;35.65;;;21.33;;
69203;SDS011;56317;27.658;85.326;2023-05-29T13:38:58;36.00;;;22.23;;
69203;SDS011;56317;27.658;85.326;2023-05-29T13:41:25;41.78;;;23.30;;
69203;SDS011;56317;27.658;85.326;2023-05-29T13:43:52;38.67;;;21.65;;
69203;SDS011;56317;27.658;85.326;2023-05-29T13:46:19;41.78;;;22.95;;
69203;SDS011;56317;27.658;85.326;2023-05-29T13:48:46;42.70;;;22.88;;
69203;SDS011;56317;27.658;85.326;2023-05-29T13:51:14;44.88;;;23.30;;
69203;SDS011;56317;27.658;85.326;2023-05-29T13:53:41;36.45;;;22.77;;
69203;SDS011;56317;27.658;85.326;2023-05-29T13:56:08;41.95;;;23.13;;
69203;SDS011;56317;27.658;85.326;2023-05-29T13:58:36;47.97;;;24.35;;
69203;SDS011;56317;27.658;85.326;2023-05-29T14:01:04;40.95;;;24.20;;
69203;SDS011;56317;27.658;85.326;2023-05-29T14:03:31;43.65;;;26.13;;
69203;SDS011;56317;27.658;85.326;2023-05-29T14:05:58;43.25;;;25.90;;
69203;SDS011;56317;27.658;85.326;2023-05-29T14:08:25;47.92;;;27.50;;
69203;SDS011;56317;27.658;85.326;2023-05-29T14:10:52;40.40;;;24.33;;
69203;SDS011;56317;27.658;85.326;2023-05-29T14:13:20;46.65;;;25.83;;
69203;SDS011;56317;27.658;85.326;2023-05-29T14:15:47;47.03;;;26.48;;
69203;SDS011;56317;27.658;85.326;2023-05-29T14:18:15;46.67;;;25.30;;
69203;SDS011;56317;27.658;85.326;2023-05-29T14:20:43;44.28;;;24.75;;
69203;SDS011;56317;27.658;85.326;2023-05-29T14:23:13;42.05;;;24.48;;
69203;SDS011;56317;27.658;85.326;2023-05-29T14:25:42;53.67;;;26.52;;
69203;SDS011;56317;27.658;85.326;2023-05-29T14:28:09;46.60;;;26.60;;
69203;SDS011;56317;27.658;85.326;2023-05-29T14:30:37;43.08;;;26.52;;
69203;SDS011;56317;27.658;85.326;2023-05-29T14:33:04;50.05;;;29.10;;
69203;SDS011;56317;27.658;85.326;2023-05-29T14:35:32;58.78;;;31.45;;
69203;SDS011;56317;27.658;85.326;2023-05-29T14:37:59;40.55;;;26.42;;
69203;SDS011;56317;27.658;85.326;2023-05-29T14:40:27;45.17;;;26.20;;
69203;SDS011;56317;27.658;85.326;2023-05-29T14:42:56;40.50;;;24.88;;
69203;SDS011;56317;27.658;85.326;2023-05-29T14:45:23;48.92;;;26.17;;
69203;SDS011;56317;27.658;85.326;2023-05-29T14:47:50;56.85;;;27.60;;
69203;SDS011;56317;27.658;85.326;2023-05-29T14:50:17;47.30;;;26.83;;
69203;SDS011;56317;27.658;85.326;2023-05-29T14:52:45;50.50;;;28.25;;
69203;SDS011;56317;27.658;85.326;2023-05-29T14:55:16;57.70;;;29.90;;
69203;SDS011;56317;27.658;85.326;2023-05-29T14:57:43;62.33;;;30.73;;
69203;SDS011;56317;27.658;85.326;2023-05-29T15:00:11;51.15;;;30.83;;
69203;SDS011;56317;27.658;85.326;2023-05-29T15:02:39;57.95;;;31.85;;
69203;SDS011;56317;27.658;85.326;2023-05-29T15:05:06;53.00;;;31.42;;
69203;SDS011;56317;27.658;85.326;2023-05-29T15:07:34;57.28;;;33.08;;